sensor_id;sensor_type;location;lat;lon;timestamp;P1;durP1;ratioP1;P2;durP2;ratioP2
35376;SDS011;21480;51.642;4.834;2022-07-23T00:01:34;119.50;;;110.70;;
35376;SDS011;21480;51.642;4.834;2022-07-23T00:04:00;121.27;;;112.17;;
35376;SDS011;21480;51.642;4.834;2022-07-23T00:06:26;121.90;;;112.83;;
35376;SDS011;21480;51.642;4.834;2022-07-23T00:08:51;122.20;;;113.10;;
35376;SDS011;21480;51.642;4.834;2022-07-23T00:11:17;119.40;;;110.80;;
35376;SDS011;21480;51.642;4.834;2022-07-23T00:13:43;121.50;;;112.60;;
35376;SDS011;21480;51.642;4.834;2022-07-23T00:16:09;122.40;;;113.33;;
35376;SDS011;21480;51.642;4.834;2022-07-23T00:18:35;121.73;;;112.67;;
35376;SDS011;21480;51.642;4.834;2022-07-23T00:21:01;120.87;;;111.87;;
35376;SDS011;21480;51.642;4.834;2022-07-23T00:23:27;121.07;;;112.30;;
35376;SDS011;21480;51.642;4.834;2022-07-23T00:25:54;120.70;;;111.60;;
35376;SDS011;21480;51.642;4.834;2022-07-23T00:28:20;121.73;;;112.63;;
35376;SDS011;21480;51.642;4.834;2022-07-23T00:30:45;122.03;;;113.00;;
35376;SDS011;21480;51.642;4.834;2022-07-23T00:33:11;122.80;;;113.87;;
35376;SDS011;21480;51.642;4.834;2022-07-23T00:35:37;122.53;;;113.53;;
35376;SDS011;21480;51.642;4.834;2022-07-23T00:38:08;120.63;;;111.73;;
35376;SDS011;21480;51.642;4.834;2022-07-23T00:40:34;121.83;;;113.00;;
35376;SDS011;21480;51.642;4.834;2022-07-23T00:43:01;119.60;;;110.70;;
35376;SDS011;21480;51.642;4.834;2022-07-23T00:45:27;120.53;;;111.83;;
35376;SDS011;21480;51.642;4.834;2022-07-23T00:47:53;121.20;;;112.33;;
35376;SDS011;21480;51.642;4.834;2022-07-23T00:50:19;122.47;;;113.37;;
35376;SDS011;21480;51.642;4.834;2022-07-23T00:52:45;123.37;;;114.07;;
35376;SDS011;21480;51.642;4.834;2022-07-23T00:55:11;122.30;;;112.87;;
35376;SDS011;21480;51.642;4.834;2022-07-23T00:57:38;122.10;;;113.07;;
35376;SDS011;21480;51.642;4.834;2022-07-23T01:00:06;122.37;;;113.20;;
35376;SDS011;21480;51.642;4.834;2022-07-23T01:02:33;120.60;;;111.73;;
35376;SDS011;21480;51.642;4.834;2022-07-23T01:04:59;122.10;;;112.67;;
35376;SDS011;21480;51.642;4.834;2022-07-23T01:07:25;123.10;;;113.93;;
35376;SDS011;21480;51.642;4.834;2022-07-23T01:09:51;122.70;;;113.40;;
35376;SDS011;21480;51.642;4.834;2022-07-23T01:12:18;123.07;;;113.83;;
35376;SDS011;21480;51.642;4.834;2022-07-23T01:14:44;121.00;;;112.10;;
35376;SDS011;21480;51.642;4.834;2022-07-23T01:17:09;122.27;;;113.07;;
35376;SDS011;21480;51.642;4.834;2022-07-23T01:19:35;122.03;;;113.00;;
35376;SDS011;21480;51.642;4.834;2022-07-23T01:22:04;119.73;;;110.77;;
35376;SDS011;21480;51.642;4.834;2022-07-23T01:24:30;122.07;;;112.87;;
35376;SDS011;21480;51.642;4.834;2022-07-23T01:26:56;123.77;;;114.00;;
35376;SDS011;21480;51.642;4.834;2022-07-23T01:29:22;124.40;;;115.07;;
35376;SDS011;21480;51.642;4.834;2022-07-23T01:31:48;123.70;;;114.10;;
35376;SDS011;21480;51.642;4.834;2022-07-23T01:34:14;122.47;;;113.27;;
35376;SDS011;21480;51.642;4.834;2022-07-23T01:36:39;121.63;;;112.43;;
35376;SDS011;21480;51.642;4.834;2022-07-23T01:39:06;120.80;;;111.80;;
35376;SDS011;21480;51.642;4.834;2022-07-23T01:41:32;121.83;;;112.70;;
35376;SDS011;21480;51.642;4.834;2022-07-23T01:43:58;122.57;;;113.43;;
35376;SDS011;21480;51.642;4.834;2022-07-23T01:46:25;123.50;;;114.13;;
35376;SDS011;21480;51.642;4.834;2022-07-23T01:48:50;121.30;;;112.40;;
35376;SDS011;21480;51.642;4.834;2022-07-23T01:51:16;123.40;;;114.17;;
35376;SDS011;21480;51.642;4.834;2022-07-23T01:53:42;121.20;;;112.27;;
35376;SDS011;21480;51.642;4.834;2022-07-23T01:56:08;120.53;;;111.53;;
35376;SDS011;21480;51.642;4.834;2022-07-23T01:58:33;121.13;;;112.23;;
35376;SDS011;21480;51.642;4.834;2022-07-23T02:00:59;122.40;;;113.10;;
35376;SDS011;21480;51.642;4.834;2022-07-23T02:03:25;121.27;;;112.07;;
35376;SDS011;21480;51.642;4.834;2022-07-23T02:05:51;120.83;;;111.93;;
35376;SDS011;21480;51.642;4.834;2022-07-23T02:08:17;120.93;;;111.90;;
35376;SDS011;21480;51.642;4.834;2022-07-23T02:10:42;121.10;;;112.30;;
35376;SDS011;21480;51.642;4.834;2022-07-23T02:13:09;121.63;;;112.53;;
35376;SDS011;21480;51.642;4.834;2022-07-23T02:15:35;123.03;;;113.57;;
35376;SDS011;21480;51.642;4.834;2022-07-23T02:18:01;122.40;;;113.10;;
35376;SDS011;21480;51.642;4.834;2022-07-23T02:20:26;121.43;;;112.33;;
35376;SDS011;21480;51.642;4.834;2022-07-23T02:22:52;123.47;;;113.73;;
35376;SDS011;21480;51.642;4.834;2022-07-23T02:25:18;122.20;;;113.17;;
35376;SDS011;21480;51.642;4.834;2022-07-23T02:27:43;120.90;;;112.00;;
35376;SDS011;21480;51.642;4.834;2022-07-23T02:30:09;122.57;;;113.33;;
35376;SDS011;21480;51.642;4.834;2022-07-23T02:32:36;120.87;;;111.87;;
35376;SDS011;21480;51.642;4.834;2022-07-23T02:35:02;119.87;;;110.87;;
35376;SDS011;21480;51.642;4.834;2022-07-23T02:37:29;120.33;;;111.13;;
35376;SDS011;21480;51.642;4.834;2022-07-23T02:39:54;119.23;;;110.43;;
35376;SDS011;21480;51.642;4.834;2022-07-23T02:42:20;120.57;;;111.70;;
35376;SDS011;21480;51.642;4.834;2022-07-23T02:44:46;121.60;;;112.50;;
35376;SDS011;21480;51.642;4.834;2022-07-23T02:47:12;123.40;;;114.07;;
35376;SDS011;21480;51.642;4.834;2022-07-23T02:49:38;122.93;;;113.63;;
35376;SDS011;21480;51.642;4.834;2022-07-23T02:52:03;123.10;;;113.80;;
35376;SDS011;21480;51.642;4.834;2022-07-23T02:54:29;124.03;;;114.53;;
35376;SDS011;21480;51.642;4.834;2022-07-23T02:56:55;123.87;;;114.37;;
35376;SDS011;21480;51.642;4.834;2022-07-23T02:59:20;126.37;;;116.07;;
35376;SDS011;21480;51.642;4.834;2022-07-23T03:01:46;124.40;;;114.90;;
35376;SDS011;21480;51.642;4.834;2022-07-23T03:04:12;122.33;;;113.20;;
35376;SDS011;21480;51.642;4.834;2022-07-23T03:06:38;122.27;;;112.97;;
35376;SDS011;21480;51.642;4.834;2022-07-23T03:09:04;121.93;;;112.73;;
35376;SDS011;21480;51.642;4.834;2022-07-23T03:11:30;123.87;;;114.77;;
35376;SDS011;21480;51.642;4.834;2022-07-23T03:13:55;122.90;;;113.80;;
35376;SDS011;21480;51.642;4.834;2022-07-23T03:16:22;122.03;;;112.47;;
35376;SDS011;21480;51.642;4.834;2022-07-23T03:18:47;121.57;;;112.57;;
35376;SDS011;21480;51.642;4.834;2022-07-23T03:21:13;122.10;;;112.80;;
35376;SDS011;21480;51.642;4.834;2022-07-23T03:23:39;123.80;;;114.30;;
35376;SDS011;21480;51.642;4.834;2022-07-23T03:26:05;124.97;;;115.47;;
35376;SDS011;21480;51.642;4.834;2022-07-23T03:28:30;122.73;;;113.63;;
35376;SDS011;21480;51.642;4.834;2022-07-23T03:30:56;122.87;;;113.13;;
35376;SDS011;21480;51.642;4.834;2022-07-23T03:33:22;122.53;;;113.43;;
35376;SDS011;21480;51.642;4.834;2022-07-23T03:35:48;122.33;;;113.03;;
35376;SDS011;21480;51.642;4.834;2022-07-23T03:38:14;124.10;;;114.60;;
35376;SDS011;21480;51.642;4.834;2022-07-23T03:40:40;124.90;;;115.30;;
35376;SDS011;21480;51.642;4.834;2022-07-23T03:43:08;123.60;;;114.30;;
35376;SDS011;21480;51.642;4.834;2022-07-23T03:45:34;126.07;;;116.23;;
35376;SDS011;21480;51.642;4.834;2022-07-23T03:48:00;125.87;;;116.43;;
35376;SDS011;21480;51.642;4.834;2022-07-23T03:50:25;123.13;;;113.80;;
35376;SDS011;21480;51.642;4.834;2022-07-23T03:52:51;127.47;;;117.27;;
35376;SDS011;21480;51.642;4.834;2022-07-23T03:55:17;125.03;;;115.43;;
35376;SDS011;21480;51.642;4.834;2022-07-23T03:57:43;123.50;;;114.10;;
35376;SDS011;21480;51.642;4.834;2022-07-23T04:00:09;124.83;;;115.27;;
35376;SDS011;21480;51.642;4.834;2022-07-23T04:02:36;126.43;;;116.77;;
35376;SDS011;21480;51.642;4.834;2022-07-23T04:05:03;123.80;;;114.50;;
35376;SDS011;21480;51.642;4.834;2022-07-23T04:07:29;120.87;;;111.93;;
35376;SDS011;21480;51.642;4.834;2022-07-23T04:09:55;122.10;;;112.70;;
35376;SDS011;21480;51.642;4.834;2022-07-23T04:12:21;120.60;;;111.70;;
35376;SDS011;21480;51.642;4.834;2022-07-23T04:14:47;121.93;;;112.73;;
35376;SDS011;21480;51.642;4.834;2022-07-23T04:17:13;122.43;;;113.37;;
35376;SDS011;21480;51.642;4.834;2022-07-23T04:19:38;123.33;;;114.03;;
35376;SDS011;21480;51.642;4.834;2022-07-23T04:22:08;123.43;;;113.37;;
35376;SDS011;21480;51.642;4.834;2022-07-23T04:24:35;122.60;;;113.10;;
35376;SDS011;21480;51.642;4.834;2022-07-23T04:27:01;122.70;;;113.33;;
35376;SDS011;21480;51.642;4.834;2022-07-23T04:29:27;123.10;;;113.87;;
35376;SDS011;21480;51.642;4.834;2022-07-23T04:31:53;123.30;;;113.57;;
35376;SDS011;21480;51.642;4.834;2022-07-23T04:34:19;121.07;;;112.03;;
35376;SDS011;21480;51.642;4.834;2022-07-23T04:36:44;121.93;;;112.33;;
35376;SDS011;21480;51.642;4.834;2022-07-23T04:39:10;122.53;;;112.97;;
35376;SDS011;21480;51.642;4.834;2022-07-23T04:41:36;124.27;;;114.97;;
35376;SDS011;21480;51.642;4.834;2022-07-23T04:44:02;123.67;;;114.17;;
35376;SDS011;21480;51.642;4.834;2022-07-23T04:46:28;122.43;;;113.30;;
35376;SDS011;21480;51.642;4.834;2022-07-23T04:48:54;121.83;;;112.77;;
35376;SDS011;21480;51.642;4.834;2022-07-23T04:51:20;121.03;;;112.07;;
35376;SDS011;21480;51.642;4.834;2022-07-23T04:53:46;122.10;;;113.00;;
35376;SDS011;21480;51.642;4.834;2022-07-23T04:56:11;122.23;;;113.03;;
35376;SDS011;21480;51.642;4.834;2022-07-23T04:58:37;123.93;;;114.53;;
35376;SDS011;21480;51.642;4.834;2022-07-23T05:01:03;120.13;;;111.33;;
35376;SDS011;21480;51.642;4.834;2022-07-23T05:03:29;123.17;;;113.70;;
35376;SDS011;21480;51.642;4.834;2022-07-23T05:05:55;122.97;;;113.77;;
35376;SDS011;21480;51.642;4.834;2022-07-23T05:08:20;122.17;;;112.83;;
35376;SDS011;21480;51.642;4.834;2022-07-23T05:10:46;121.97;;;112.97;;
35376;SDS011;21480;51.642;4.834;2022-07-23T05:13:13;122.90;;;113.80;;
35376;SDS011;21480;51.642;4.834;2022-07-23T05:15:40;122.67;;;113.43;;
35376;SDS011;21480;51.642;4.834;2022-07-23T05:18:06;123.87;;;113.90;;
35376;SDS011;21480;51.642;4.834;2022-07-23T05:20:32;124.37;;;114.87;;
35376;SDS011;21480;51.642;4.834;2022-07-23T05:22:57;123.07;;;113.77;;
35376;SDS011;21480;51.642;4.834;2022-07-23T05:25:23;125.53;;;115.77;;
35376;SDS011;21480;51.642;4.834;2022-07-23T05:27:49;124.87;;;115.17;;
35376;SDS011;21480;51.642;4.834;2022-07-23T05:30:15;124.67;;;115.07;;
35376;SDS011;21480;51.642;4.834;2022-07-23T05:32:40;126.10;;;116.33;;
35376;SDS011;21480;51.642;4.834;2022-07-23T05:35:06;123.60;;;114.17;;
35376;SDS011;21480;51.642;4.834;2022-07-23T05:37:32;124.50;;;115.10;;
35376;SDS011;21480;51.642;4.834;2022-07-23T05:40:05;122.83;;;113.80;;
35376;SDS011;21480;51.642;4.834;2022-07-23T05:42:36;125.20;;;115.70;;
35376;SDS011;21480;51.642;4.834;2022-07-23T05:45:03;122.40;;;113.30;;
35376;SDS011;21480;51.642;4.834;2022-07-23T05:47:39;125.13;;;115.83;;
35376;SDS011;21480;51.642;4.834;2022-07-23T05:50:13;121.23;;;112.33;;
35376;SDS011;21480;51.642;4.834;2022-07-23T05:52:40;124.50;;;115.40;;
35376;SDS011;21480;51.642;4.834;2022-07-23T05:55:06;122.17;;;113.07;;
35376;SDS011;21480;51.642;4.834;2022-07-23T05:57:33;123.87;;;114.67;;
35376;SDS011;21480;51.642;4.834;2022-07-23T05:59:59;124.40;;;114.87;;
35376;SDS011;21480;51.642;4.834;2022-07-23T06:02:25;124.10;;;114.57;;
35376;SDS011;21480;51.642;4.834;2022-07-23T06:04:51;120.37;;;111.57;;
35376;SDS011;21480;51.642;4.834;2022-07-23T06:07:17;121.33;;;112.37;;
35376;SDS011;21480;51.642;4.834;2022-07-23T06:09:42;123.30;;;114.23;;
35376;SDS011;21480;51.642;4.834;2022-07-23T06:12:08;122.67;;;113.37;;
35376;SDS011;21480;51.642;4.834;2022-07-23T06:14:34;121.90;;;112.70;;
35376;SDS011;21480;51.642;4.834;2022-07-23T06:17:03;121.93;;;112.50;;
35376;SDS011;21480;51.642;4.834;2022-07-23T06:19:28;122.67;;;113.20;;
35376;SDS011;21480;51.642;4.834;2022-07-23T06:21:54;122.77;;;113.80;;
35376;SDS011;21480;51.642;4.834;2022-07-23T06:24:19;121.63;;;112.73;;
35376;SDS011;21480;51.642;4.834;2022-07-23T06:26:45;121.83;;;113.03;;
35376;SDS011;21480;51.642;4.834;2022-07-23T06:29:11;120.87;;;111.97;;
35376;SDS011;21480;51.642;4.834;2022-07-23T06:31:37;120.60;;;111.80;;
35376;SDS011;21480;51.642;4.834;2022-07-23T06:34:03;121.60;;;112.73;;
35376;SDS011;21480;51.642;4.834;2022-07-23T06:36:28;121.30;;;112.60;;
35376;SDS011;21480;51.642;4.834;2022-07-23T06:38:54;121.97;;;112.60;;
35376;SDS011;21480;51.642;4.834;2022-07-23T06:41:20;123.37;;;114.30;;
35376;SDS011;21480;51.642;4.834;2022-07-23T06:43:47;121.70;;;112.73;;
35376;SDS011;21480;51.642;4.834;2022-07-23T06:46:13;119.80;;;111.20;;
35376;SDS011;21480;51.642;4.834;2022-07-23T06:48:39;119.40;;;110.90;;
35376;SDS011;21480;51.642;4.834;2022-07-23T06:51:05;120.83;;;112.20;;
35376;SDS011;21480;51.642;4.834;2022-07-23T06:53:30;121.20;;;112.40;;
35376;SDS011;21480;51.642;4.834;2022-07-23T06:55:56;122.23;;;113.30;;
35376;SDS011;21480;51.642;4.834;2022-07-23T06:58:22;121.87;;;113.03;;
35376;SDS011;21480;51.642;4.834;2022-07-23T07:00:47;121.57;;;112.33;;
35376;SDS011;21480;51.642;4.834;2022-07-23T07:03:13;121.00;;;112.17;;
35376;SDS011;21480;51.642;4.834;2022-07-23T07:05:40;120.53;;;111.83;;
35376;SDS011;21480;51.642;4.834;2022-07-23T07:08:05;119.43;;;110.73;;
35376;SDS011;21480;51.642;4.834;2022-07-23T07:10:31;121.37;;;112.33;;
35376;SDS011;21480;51.642;4.834;2022-07-23T07:12:57;121.30;;;112.60;;
35376;SDS011;21480;51.642;4.834;2022-07-23T07:15:23;120.83;;;112.03;;
35376;SDS011;21480;51.642;4.834;2022-07-23T07:17:48;120.80;;;112.30;;
35376;SDS011;21480;51.642;4.834;2022-07-23T07:20:14;120.47;;;111.70;;
35376;SDS011;21480;51.642;4.834;2022-07-23T07:22:40;119.90;;;111.03;;
35376;SDS011;21480;51.642;4.834;2022-07-23T07:25:07;120.33;;;111.77;;
35376;SDS011;21480;51.642;4.834;2022-07-23T07:27:33;120.50;;;111.90;;
35376;SDS011;21480;51.642;4.834;2022-07-23T07:29:59;122.03;;;113.23;;
35376;SDS011;21480;51.642;4.834;2022-07-23T07:32:24;120.57;;;111.77;;
35376;SDS011;21480;51.642;4.834;2022-07-23T07:34:50;121.53;;;112.77;;
35376;SDS011;21480;51.642;4.834;2022-07-23T07:37:16;121.23;;;112.43;;
35376;SDS011;21480;51.642;4.834;2022-07-23T07:39:42;119.70;;;110.90;;
35376;SDS011;21480;51.642;4.834;2022-07-23T07:42:11;118.93;;;110.63;;
35376;SDS011;21480;51.642;4.834;2022-07-23T07:44:36;117.13;;;109.03;;
35376;SDS011;21480;51.642;4.834;2022-07-23T07:47:02;121.70;;;112.30;;
35376;SDS011;21480;51.642;4.834;2022-07-23T07:49:28;120.20;;;111.30;;
35376;SDS011;21480;51.642;4.834;2022-07-23T07:51:53;120.93;;;112.33;;
35376;SDS011;21480;51.642;4.834;2022-07-23T07:54:19;120.80;;;112.07;;
35376;SDS011;21480;51.642;4.834;2022-07-23T07:56:45;119.47;;;110.80;;
35376;SDS011;21480;51.642;4.834;2022-07-23T07:59:10;120.07;;;111.77;;
35376;SDS011;21480;51.642;4.834;2022-07-23T08:01:36;120.80;;;111.73;;
35376;SDS011;21480;51.642;4.834;2022-07-23T08:04:02;118.03;;;109.63;;
35376;SDS011;21480;51.642;4.834;2022-07-23T08:06:28;119.87;;;111.43;;
35376;SDS011;21480;51.642;4.834;2022-07-23T08:08:53;121.10;;;112.27;;
35376;SDS011;21480;51.642;4.834;2022-07-23T08:11:19;119.67;;;111.27;;
35376;SDS011;21480;51.642;4.834;2022-07-23T08:13:45;119.57;;;111.27;;
35376;SDS011;21480;51.642;4.834;2022-07-23T08:16:11;118.70;;;110.40;;
35376;SDS011;21480;51.642;4.834;2022-07-23T08:18:36;117.70;;;109.50;;
35376;SDS011;21480;51.642;4.834;2022-07-23T08:21:03;121.43;;;112.67;;
35376;SDS011;21480;51.642;4.834;2022-07-23T08:23:30;118.80;;;110.40;;
35376;SDS011;21480;51.642;4.834;2022-07-23T08:25:56;119.90;;;111.50;;
35376;SDS011;21480;51.642;4.834;2022-07-23T08:28:24;120.23;;;111.37;;
35376;SDS011;21480;51.642;4.834;2022-07-23T08:30:50;118.47;;;110.13;;
35376;SDS011;21480;51.642;4.834;2022-07-23T08:33:16;118.17;;;109.70;;
35376;SDS011;21480;51.642;4.834;2022-07-23T08:35:44;118.63;;;110.13;;
35376;SDS011;21480;51.642;4.834;2022-07-23T08:38:12;119.90;;;111.37;;
35376;SDS011;21480;51.642;4.834;2022-07-23T08:40:40;119.80;;;111.40;;
35376;SDS011;21480;51.642;4.834;2022-07-23T08:43:20;119.10;;;111.00;;
35376;SDS011;21480;51.642;4.834;2022-07-23T08:45:53;119.50;;;111.13;;
35376;SDS011;21480;51.642;4.834;2022-07-23T08:48:34;117.30;;;109.17;;
35376;SDS011;21480;51.642;4.834;2022-07-23T08:51:02;118.60;;;110.43;;
35376;SDS011;21480;51.642;4.834;2022-07-23T08:53:29;118.80;;;110.40;;
35376;SDS011;21480;51.642;4.834;2022-07-23T08:55:58;120.03;;;111.47;;
35376;SDS011;21480;51.642;4.834;2022-07-23T08:58:26;120.47;;;112.03;;
35376;SDS011;21480;51.642;4.834;2022-07-23T09:00:52;118.37;;;110.40;;
35376;SDS011;21480;51.642;4.834;2022-07-23T09:03:20;117.83;;;109.83;;
35376;SDS011;21480;51.642;4.834;2022-07-23T09:05:47;119.07;;;110.77;;
35376;SDS011;21480;51.642;4.834;2022-07-23T09:08:16;117.13;;;109.07;;
35376;SDS011;21480;51.642;4.834;2022-07-23T09:13:41;119.47;;;111.27;;
35376;SDS011;21480;51.642;4.834;2022-07-23T09:21:10;119.33;;;111.03;;
35376;SDS011;21480;51.642;4.834;2022-07-23T09:23:37;118.87;;;110.27;;
35376;SDS011;21480;51.642;4.834;2022-07-23T09:26:10;119.60;;;111.40;;
35376;SDS011;21480;51.642;4.834;2022-07-23T09:31:31;120.33;;;111.83;;
35376;SDS011;21480;51.642;4.834;2022-07-23T09:34:07;119.20;;;111.07;;
35376;SDS011;21480;51.642;4.834;2022-07-23T09:36:34;118.00;;;110.07;;
35376;SDS011;21480;51.642;4.834;2022-07-23T09:39:00;118.73;;;110.43;;
35376;SDS011;21480;51.642;4.834;2022-07-23T09:41:26;117.37;;;109.37;;
35376;SDS011;21480;51.642;4.834;2022-07-23T09:44:06;117.00;;;109.00;;
35376;SDS011;21480;51.642;4.834;2022-07-23T09:46:39;117.10;;;108.90;;
35376;SDS011;21480;51.642;4.834;2022-07-23T09:49:16;118.60;;;110.50;;
35376;SDS011;21480;51.642;4.834;2022-07-23T09:51:56;119.37;;;111.00;;
35376;SDS011;21480;51.642;4.834;2022-07-23T09:56:58;118.47;;;109.93;;
35376;SDS011;21480;51.642;4.834;2022-07-23T09:59:27;115.60;;;107.90;;
35376;SDS011;21480;51.642;4.834;2022-07-23T10:01:56;115.67;;;107.97;;
35376;SDS011;21480;51.642;4.834;2022-07-23T10:04:24;116.60;;;108.63;;
35376;SDS011;21480;51.642;4.834;2022-07-23T10:06:53;115.53;;;107.50;;
35376;SDS011;21480;51.642;4.834;2022-07-23T10:09:28;116.50;;;108.33;;
35376;SDS011;21480;51.642;4.834;2022-07-23T10:11:56;116.70;;;108.93;;
35376;SDS011;21480;51.642;4.834;2022-07-23T10:14:28;118.33;;;109.97;;
35376;SDS011;21480;51.642;4.834;2022-07-23T10:16:56;119.73;;;111.43;;
35376;SDS011;21480;51.642;4.834;2022-07-23T10:19:25;117.73;;;109.47;;
35376;SDS011;21480;51.642;4.834;2022-07-23T10:21:55;116.53;;;108.73;;
35376;SDS011;21480;51.642;4.834;2022-07-23T10:38:55;116.70;;;108.60;;
35376;SDS011;21480;51.642;4.834;2022-07-23T10:41:35;116.77;;;108.83;;
35376;SDS011;21480;51.642;4.834;2022-07-23T10:44:11;116.47;;;108.60;;
35376;SDS011;21480;51.642;4.834;2022-07-23T10:46:54;117.77;;;109.53;;
35376;SDS011;21480;51.642;4.834;2022-07-23T10:49:33;115.50;;;107.90;;
35376;SDS011;21480;51.642;4.834;2022-07-23T10:52:19;116.37;;;108.57;;
35376;SDS011;21480;51.642;4.834;2022-07-23T10:54:50;115.83;;;108.13;;
35376;SDS011;21480;51.642;4.834;2022-07-23T10:57:21;117.10;;;109.33;;
35376;SDS011;21480;51.642;4.834;2022-07-23T11:02:34;115.33;;;107.43;;
35376;SDS011;21480;51.642;4.834;2022-07-23T11:05:07;116.07;;;108.40;;
35376;SDS011;21480;51.642;4.834;2022-07-23T11:10:39;115.83;;;108.13;;
35376;SDS011;21480;51.642;4.834;2022-07-23T11:31:51;116.13;;;108.53;;
35376;SDS011;21480;51.642;4.834;2022-07-23T11:35:01;116.27;;;108.57;;
35376;SDS011;21480;51.642;4.834;2022-07-23T11:37:08;115.13;;;107.53;;
35376;SDS011;21480;51.642;4.834;2022-07-23T11:39:35;115.73;;;108.03;;
35376;SDS011;21480;51.642;4.834;2022-07-23T11:42:03;115.83;;;108.23;;
35376;SDS011;21480;51.642;4.834;2022-07-23T11:44:34;115.50;;;107.63;;
35376;SDS011;21480;51.642;4.834;2022-07-23T11:47:43;114.90;;;107.20;;
35376;SDS011;21480;51.642;4.834;2022-07-23T11:49:52;116.47;;;108.43;;
35376;SDS011;21480;51.642;4.834;2022-07-23T11:52:22;117.17;;;109.40;;
35376;SDS011;21480;51.642;4.834;2022-07-23T11:54:53;116.77;;;108.87;;
35376;SDS011;21480;51.642;4.834;2022-07-23T11:57:23;116.80;;;108.97;;
35376;SDS011;21480;51.642;4.834;2022-07-23T12:00:01;115.37;;;107.70;;
35376;SDS011;21480;51.642;4.834;2022-07-23T12:02:28;115.43;;;107.47;;
35376;SDS011;21480;51.642;4.834;2022-07-23T12:04:53;114.07;;;106.67;;
35376;SDS011;21480;51.642;4.834;2022-07-23T12:07:23;118.37;;;110.40;;
35376;SDS011;21480;51.642;4.834;2022-07-23T12:09:54;118.63;;;110.57;;
35376;SDS011;21480;51.642;4.834;2022-07-23T12:12:21;117.13;;;109.30;;
35376;SDS011;21480;51.642;4.834;2022-07-23T12:14:58;116.23;;;108.43;;
35376;SDS011;21480;51.642;4.834;2022-07-23T12:17:33;118.33;;;110.27;;
35376;SDS011;21480;51.642;4.834;2022-07-23T12:20:04;116.33;;;108.40;;
35376;SDS011;21480;51.642;4.834;2022-07-23T12:22:35;115.23;;;107.73;;
35376;SDS011;21480;51.642;4.834;2022-07-23T12:25:07;116.57;;;108.93;;
35376;SDS011;21480;51.642;4.834;2022-07-23T12:27:35;116.53;;;108.67;;
35376;SDS011;21480;51.642;4.834;2022-07-23T12:32:51;116.07;;;108.43;;
35376;SDS011;21480;51.642;4.834;2022-07-23T12:35:20;115.93;;;108.28;;
35376;SDS011;21480;51.642;4.834;2022-07-23T12:37:47;116.32;;;108.75;;
35376;SDS011;21480;51.642;4.834;2022-07-23T12:43:06;115.32;;;107.93;;
35376;SDS011;21480;51.642;4.834;2022-07-23T12:48:18;115.80;;;108.03;;
35376;SDS011;21480;51.642;4.834;2022-07-23T12:55:56;113.28;;;106.25;;
35376;SDS011;21480;51.642;4.834;2022-07-23T12:58:24;113.38;;;106.38;;
35376;SDS011;21480;51.642;4.834;2022-07-23T13:03:41;116.18;;;108.78;;
35376;SDS011;21480;51.642;4.834;2022-07-23T13:06:10;114.30;;;107.20;;
35376;SDS011;21480;51.642;4.834;2022-07-23T13:08:37;114.93;;;107.50;;
35376;SDS011;21480;51.642;4.834;2022-07-23T13:11:05;113.57;;;106.47;;
35376;SDS011;21480;51.642;4.834;2022-07-23T13:13:32;116.07;;;108.78;;
35376;SDS011;21480;51.642;4.834;2022-07-23T13:15:59;114.75;;;107.43;;
35376;SDS011;21480;51.642;4.834;2022-07-23T13:18:25;116.03;;;108.47;;
35376;SDS011;21480;51.642;4.834;2022-07-23T13:20:51;113.20;;;106.10;;
35376;SDS011;21480;51.642;4.834;2022-07-23T13:23:18;115.60;;;107.97;;
35376;SDS011;21480;51.642;4.834;2022-07-23T13:25:44;114.03;;;106.82;;
35376;SDS011;21480;51.642;4.834;2022-07-23T13:28:10;115.43;;;108.07;;
35376;SDS011;21480;51.642;4.834;2022-07-23T13:30:36;114.93;;;107.38;;
35376;SDS011;21480;51.642;4.834;2022-07-23T13:33:03;115.07;;;107.72;;
35376;SDS011;21480;51.642;4.834;2022-07-23T13:35:33;115.85;;;108.20;;
35376;SDS011;21480;51.642;4.834;2022-07-23T13:37:59;115.90;;;108.32;;
35376;SDS011;21480;51.642;4.834;2022-07-23T13:40:25;116.63;;;108.55;;
35376;SDS011;21480;51.642;4.834;2022-07-23T13:42:51;114.72;;;107.63;;
35376;SDS011;21480;51.642;4.834;2022-07-23T13:45:17;114.38;;;107.05;;
35376;SDS011;21480;51.642;4.834;2022-07-23T13:47:42;113.80;;;106.80;;
35376;SDS011;21480;51.642;4.834;2022-07-23T13:50:08;112.63;;;105.35;;
35376;SDS011;21480;51.642;4.834;2022-07-23T13:52:34;113.80;;;106.70;;
35376;SDS011;21480;51.642;4.834;2022-07-23T13:55:00;114.60;;;107.32;;
35376;SDS011;21480;51.642;4.834;2022-07-23T13:57:27;114.35;;;107.45;;
35376;SDS011;21480;51.642;4.834;2022-07-23T13:59:52;112.20;;;105.38;;
35376;SDS011;21480;51.642;4.834;2022-07-23T14:02:18;111.88;;;104.88;;
35376;SDS011;21480;51.642;4.834;2022-07-23T14:04:44;110.00;;;103.30;;
35376;SDS011;21480;51.642;4.834;2022-07-23T14:07:10;107.90;;;101.45;;
35376;SDS011;21480;51.642;4.834;2022-07-23T14:09:36;111.68;;;104.88;;
35376;SDS011;21480;51.642;4.834;2022-07-23T14:12:02;111.78;;;104.97;;
35376;SDS011;21480;51.642;4.834;2022-07-23T14:14:29;113.38;;;106.57;;
35376;SDS011;21480;51.642;4.834;2022-07-23T14:16:55;112.00;;;105.20;;
35376;SDS011;21480;51.642;4.834;2022-07-23T14:19:21;111.82;;;105.13;;
35376;SDS011;21480;51.642;4.834;2022-07-23T14:21:46;112.60;;;105.35;;
35376;SDS011;21480;51.642;4.834;2022-07-23T14:24:13;112.95;;;105.95;;
35376;SDS011;21480;51.642;4.834;2022-07-23T14:26:40;112.90;;;105.90;;
35376;SDS011;21480;51.642;4.834;2022-07-23T14:29:06;110.00;;;103.38;;
35376;SDS011;21480;51.642;4.834;2022-07-23T14:31:32;110.13;;;103.32;;
35376;SDS011;21480;51.642;4.834;2022-07-23T14:33:58;111.78;;;105.07;;
35376;SDS011;21480;51.642;4.834;2022-07-23T14:36:24;109.88;;;103.32;;
35376;SDS011;21480;51.642;4.834;2022-07-23T14:38:51;113.00;;;106.30;;
35376;SDS011;21480;51.642;4.834;2022-07-23T14:41:17;109.57;;;102.88;;
35376;SDS011;21480;51.642;4.834;2022-07-23T14:43:43;110.88;;;104.13;;
35376;SDS011;21480;51.642;4.834;2022-07-23T14:46:09;111.47;;;104.78;;
35376;SDS011;21480;51.642;4.834;2022-07-23T14:48:36;111.88;;;105.07;;
35376;SDS011;21480;51.642;4.834;2022-07-23T14:51:02;111.03;;;104.43;;
35376;SDS011;21480;51.642;4.834;2022-07-23T14:53:29;113.60;;;106.35;;
35376;SDS011;21480;51.642;4.834;2022-07-23T14:55:55;114.88;;;107.63;;
35376;SDS011;21480;51.642;4.834;2022-07-23T14:58:25;114.13;;;107.20;;
35376;SDS011;21480;51.642;4.834;2022-07-23T15:00:51;114.50;;;107.60;;
35376;SDS011;21480;51.642;4.834;2022-07-23T15:03:16;113.20;;;106.10;;
35376;SDS011;21480;51.642;4.834;2022-07-23T15:05:42;114.45;;;107.30;;